createdAt,value
2019-03-31T00:01:26.043Z,101497.86
2019-03-31T00:03:56.118Z,101501.25
2019-03-31T00:06:26.174Z,101505.11
2019-03-31T00:08:57.517Z,101505.09
2019-03-31T00:11:28.687Z,101501.67
2019-03-31T00:13:58.778Z,101506.44
2019-03-31T00:16:28.894Z,101501.77
2019-03-31T00:18:58.982Z,101507.72
2019-03-31T00:21:29.068Z,101508.54
2019-03-31T00:23:59.157Z,101502.91
2019-03-31T00:26:29.216Z,101502.86
2019-03-31T00:28:59.325Z,101496.34
2019-03-31T00:31:29.409Z,101499.17
2019-03-31T00:33:59.575Z,101507.89
2019-03-31T00:36:29.712Z,101511.17
2019-03-31T00:38:59.818Z,101507.34
2019-03-31T00:41:29.908Z,101506.98
2019-03-31T00:44:01.010Z,101509.34
2019-03-31T00:46:31.069Z,101509.75
2019-03-31T00:49:01.230Z,101500.72
2019-03-31T00:51:31.384Z,101504.00
2019-03-31T00:54:01.506Z,101512.41
2019-03-31T00:56:31.579Z,101512.36
2019-03-31T00:59:01.730Z,101515.22
2019-03-31T01:01:44.065Z,101517.16
2019-03-31T01:04:18.557Z,101519.70
2019-03-31T01:06:51.521Z,101497.98
2019-03-31T01:09:25.332Z,101511.19
2019-03-31T01:11:55.753Z,101516.96
2019-03-31T01:14:26.467Z,101523.66
2019-03-31T01:16:57.209Z,101521.81
2019-03-31T01:19:27.678Z,101528.31
2019-03-31T01:21:57.836Z,101525.96
2019-03-31T01:24:27.939Z,101533.56
2019-03-31T01:26:58.041Z,101527.12
2019-03-31T01:29:28.291Z,101535.19
2019-03-31T01:31:58.561Z,101530.78
2019-03-31T01:34:28.644Z,101530.26
2019-03-31T01:36:58.837Z,101527.75
2019-03-31T01:39:31.360Z,101521.23
2019-03-31T01:42:01.572Z,101525.82
2019-03-31T01:44:31.682Z,101532.34
2019-03-31T01:47:01.839Z,101532.80
2019-03-31T01:49:31.932Z,101529.22
2019-03-31T01:52:02.812Z,101542.22
2019-03-31T01:54:32.913Z,101543.95
2019-03-31T01:57:02.974Z,101545.98
2019-03-31T01:59:33.048Z,101545.98
2019-03-31T02:02:04.578Z,101556.89
2019-03-31T02:04:34.832Z,101556.20
2019-03-31T02:07:05.094Z,101556.15
2019-03-31T02:09:35.164Z,101557.70
2019-03-31T02:12:05.323Z,101553.53
2019-03-31T02:14:35.396Z,101560.27
2019-03-31T02:17:05.484Z,101569.55
2019-03-31T02:19:35.561Z,101566.39
2019-03-31T02:22:05.739Z,101566.66
2019-03-31T02:24:35.809Z,101564.72
2019-03-31T02:27:05.911Z,101571.98
2019-03-31T02:29:35.991Z,101578.22
2019-03-31T02:32:22.556Z,101577.64
2019-03-31T02:34:37.933Z,101578.37
2019-03-31T02:37:08.037Z,101576.55
2019-03-31T02:39:38.104Z,101576.48
2019-03-31T02:42:08.278Z,101585.74
2019-03-31T02:44:38.431Z,101582.11
2019-03-31T02:47:08.547Z,101581.70
2019-03-31T02:49:38.618Z,101583.07
2019-03-31T02:52:08.921Z,101583.27
2019-03-31T02:54:39.091Z,101582.12
2019-03-31T02:57:09.366Z,101589.83
2019-03-31T02:59:39.940Z,101586.95
2019-03-31T03:02:10.129Z,101593.52
2019-03-31T03:04:42.158Z,101604.91
2019-03-31T03:07:13.828Z,101603.77
2019-03-31T03:09:45.713Z,101606.59
2019-03-31T03:12:18.035Z,101602.56
2019-03-31T03:14:50.192Z,101603.97
2019-03-31T03:17:20.268Z,101608.79
2019-03-31T03:19:50.340Z,101611.67
2019-03-31T03:22:20.491Z,101611.39
2019-03-31T03:24:50.589Z,101617.33
2019-03-31T03:27:20.696Z,101617.08
2019-03-31T03:29:50.732Z,101614.20
2019-03-31T03:32:20.877Z,101618.14
2019-03-31T03:34:50.946Z,101618.22
2019-03-31T03:37:21.171Z,101616.33
2019-03-31T03:39:51.192Z,101621.69
2019-03-31T03:42:22.244Z,101634.75
2019-03-31T03:44:52.309Z,101647.10
2019-03-31T03:47:23.440Z,101647.86
2019-03-31T03:49:53.532Z,101645.08
2019-03-31T03:52:23.594Z,101652.84
2019-03-31T03:54:53.734Z,101665.42
2019-03-31T03:57:23.811Z,101664.39
2019-03-31T03:59:53.921Z,101670.06
2019-03-31T04:02:24.011Z,101674.94
2019-03-31T04:04:54.096Z,101684.03
2019-03-31T04:07:24.177Z,101690.00
2019-03-31T04:09:54.260Z,101693.56
2019-03-31T04:12:24.348Z,101689.72
2019-03-31T04:14:54.412Z,101693.17
2019-03-31T04:17:24.532Z,101696.91
2019-03-31T04:19:54.596Z,101696.70
2019-03-31T04:22:24.680Z,101696.75
2019-03-31T04:24:54.735Z,101700.30
2019-03-31T04:27:24.837Z,101697.53
2019-03-31T04:29:54.895Z,101700.12
2019-03-31T04:32:25.013Z,101704.09
2019-03-31T04:34:55.067Z,101707.62
2019-03-31T04:37:25.184Z,101710.34
2019-03-31T04:39:55.256Z,101708.59
2019-03-31T04:42:25.374Z,101714.06
2019-03-31T04:44:55.442Z,101710.72
2019-03-31T04:47:25.570Z,101722.00
2019-03-31T04:49:55.645Z,101724.84
2019-03-31T04:52:25.747Z,101727.61
2019-03-31T04:54:55.839Z,101732.44
2019-03-31T04:57:25.929Z,101727.45
2019-03-31T04:59:56.005Z,101730.78
2019-03-31T05:02:27.318Z,101738.08
2019-03-31T05:04:57.568Z,101732.29
2019-03-31T05:07:27.649Z,101730.78
2019-03-31T05:09:57.757Z,101733.09
2019-03-31T05:12:27.834Z,101737.96
2019-03-31T05:14:57.904Z,101739.16
2019-03-31T05:17:27.994Z,101738.02
2019-03-31T05:19:58.060Z,101744.33
2019-03-31T05:22:28.149Z,101749.66
2019-03-31T05:24:58.244Z,101708.20
2019-03-31T05:27:28.323Z,101755.09
2019-03-31T05:29:58.398Z,101758.38
2019-03-31T05:32:28.482Z,101766.03
2019-03-31T05:34:58.545Z,101772.17
2019-03-31T05:37:28.622Z,101772.67
2019-03-31T05:39:58.700Z,101773.69
2019-03-31T05:42:28.789Z,101779.46
2019-03-31T05:44:58.847Z,101772.96
2019-03-31T05:47:28.930Z,101774.48
2019-03-31T05:49:58.990Z,101775.48
2019-03-31T05:52:29.073Z,101777.29
2019-03-31T05:54:59.145Z,101781.03
2019-03-31T05:57:29.223Z,101782.23
2019-03-31T05:59:59.303Z,101793.39
2019-03-31T06:02:29.376Z,101789.66
2019-03-31T06:04:59.468Z,101782.86
2019-03-31T06:07:29.568Z,101795.52
2019-03-31T06:09:59.658Z,101793.52
2019-03-31T06:12:29.744Z,101795.98
2019-03-31T06:14:59.827Z,101801.25
2019-03-31T06:17:29.901Z,101797.98
2019-03-31T06:20:00.019Z,101799.45
2019-03-31T06:22:30.093Z,101800.63
2019-03-31T06:25:00.353Z,101796.36
2019-03-31T06:27:30.484Z,101796.92
2019-03-31T06:30:00.523Z,101808.30
2019-03-31T06:32:30.616Z,101804.74
2019-03-31T06:35:00.717Z,101807.33
2019-03-31T06:37:30.811Z,101807.16
2019-03-31T06:40:00.977Z,101809.98
2019-03-31T06:42:31.062Z,101815.09
2019-03-31T06:45:01.139Z,101820.13
2019-03-31T06:47:31.250Z,101824.23
2019-03-31T06:50:01.315Z,101816.23
2019-03-31T06:52:31.406Z,101815.08
2019-03-31T06:55:02.555Z,101819.33
2019-03-31T06:57:32.697Z,101821.16
2019-03-31T07:00:02.768Z,101819.87
2019-03-31T07:02:32.878Z,101824.84
2019-03-31T07:05:02.953Z,101822.89
2019-03-31T07:07:33.071Z,101824.41
2019-03-31T07:10:03.181Z,101821.83
2019-03-31T07:12:33.302Z,101833.95
2019-03-31T07:15:03.551Z,101828.97
2019-03-31T07:17:33.669Z,101836.00
2019-03-31T07:20:04.142Z,101842.31
2019-03-31T07:22:34.239Z,101836.38
2019-03-31T07:25:04.774Z,101784.39
2019-03-31T07:27:34.864Z,101843.83
2019-03-31T07:30:07.286Z,101851.39
2019-03-31T07:32:37.702Z,101854.02
2019-03-31T07:35:18.188Z,101858.00
2019-03-31T07:37:47.030Z,101850.20
2019-03-31T07:40:13.266Z,101859.70
2019-03-31T07:42:43.413Z,101857.98
2019-03-31T07:45:15.393Z,101862.82
2019-03-31T07:47:45.652Z,101869.40
2019-03-31T07:50:18.112Z,101873.83
2019-03-31T07:52:48.181Z,101866.94
2019-03-31T07:55:18.396Z,101871.64
2019-03-31T07:57:48.574Z,101879.02
2019-03-31T08:00:20.517Z,101874.41
2019-03-31T08:02:50.678Z,101879.84
2019-03-31T08:05:32.391Z,101880.48
2019-03-31T08:07:52.590Z,101885.85
2019-03-31T08:10:23.905Z,101885.75
2019-03-31T08:12:54.027Z,101889.96
2019-03-31T08:15:25.054Z,101886.48
2019-03-31T08:17:55.154Z,101894.42
2019-03-31T08:20:25.337Z,101896.22
2019-03-31T08:22:57.068Z,101899.31
2019-03-31T08:25:27.285Z,101901.17
2019-03-31T08:27:57.571Z,101896.68
2019-03-31T08:30:27.953Z,101898.46
2019-03-31T08:32:58.050Z,101900.34
2019-03-31T08:35:28.135Z,101903.63
2019-03-31T08:37:58.262Z,101902.42
2019-03-31T08:40:28.420Z,101904.84
2019-03-31T08:42:58.622Z,101905.30
2019-03-31T08:45:30.447Z,101909.69
2019-03-31T08:48:00.541Z,101919.72
2019-03-31T08:50:30.651Z,101920.80
2019-03-31T08:53:00.744Z,101926.05
2019-03-31T08:55:30.833Z,101932.27
2019-03-31T08:58:00.951Z,101932.86
2019-03-31T09:00:50.076Z,101942.03
2019-03-31T09:03:20.160Z,101941.06
2019-03-31T09:06:01.115Z,101945.33
2019-03-31T09:08:22.013Z,101950.97
2019-03-31T09:10:52.129Z,101955.21
2019-03-31T09:13:22.318Z,101964.33
2019-03-31T09:15:52.399Z,101949.73
2019-03-31T09:18:22.494Z,101953.02
2019-03-31T09:20:52.691Z,101959.25
2019-03-31T09:23:22.980Z,101955.67
2019-03-31T09:25:53.039Z,101955.02
2019-03-31T09:28:23.182Z,101959.34
2019-03-31T09:30:55.922Z,101963.77
2019-03-31T09:33:26.082Z,101960.47
2019-03-31T09:35:56.183Z,101959.44
2019-03-31T09:38:26.542Z,101961.63
2019-03-31T09:40:56.800Z,101967.37
2019-03-31T09:43:27.798Z,101956.88
2019-03-31T09:45:57.882Z,101867.83
2019-03-31T09:48:31.056Z,101958.66
2019-03-31T09:51:01.157Z,101957.55
2019-03-31T09:53:31.247Z,101961.13
2019-03-31T09:56:01.337Z,101961.97
2019-03-31T09:58:31.467Z,101958.67
2019-03-31T10:01:01.541Z,101957.67
2019-03-31T10:03:31.633Z,101958.66
2019-03-31T10:06:10.774Z,101961.83
2019-03-31T10:08:33.697Z,101960.88
2019-03-31T10:11:03.865Z,101958.61
2019-03-31T10:14:12.644Z,101950.55
2019-03-31T10:16:42.725Z,101955.47
2019-03-31T10:19:13.183Z,101955.02
2019-03-31T10:21:43.335Z,101959.66
2019-03-31T10:24:13.789Z,101959.28
2019-03-31T10:26:44.034Z,101962.64
2019-03-31T10:29:14.157Z,101969.09
2019-03-31T10:31:44.229Z,101961.88
2019-03-31T10:34:14.332Z,101966.91
2019-03-31T10:36:45.096Z,101961.41
2019-03-31T10:39:15.601Z,101960.51
2019-03-31T10:41:45.684Z,101963.09
2019-03-31T10:44:15.758Z,101966.16
2019-03-31T10:46:45.859Z,101966.09
2019-03-31T10:49:15.937Z,101966.28
2019-03-31T10:51:46.035Z,101960.31
2019-03-31T10:54:16.989Z,101957.91
2019-03-31T10:56:47.267Z,101972.54
2019-03-31T10:59:17.436Z,101968.23
2019-03-31T11:01:47.533Z,101958.82
2019-03-31T11:04:17.631Z,101955.39
2019-03-31T11:06:58.459Z,101959.60
2019-03-31T11:09:19.511Z,101962.28
2019-03-31T11:11:49.595Z,101965.02
2019-03-31T11:14:19.949Z,101970.11
2019-03-31T11:16:50.123Z,101971.45
2019-03-31T11:19:21.860Z,101968.55
2019-03-31T11:22:05.357Z,101961.30
2019-03-31T11:24:35.622Z,101967.46
2019-03-31T11:27:05.829Z,101969.42
2019-03-31T11:29:35.925Z,101981.25
2019-03-31T11:32:06.049Z,101980.59
2019-03-31T11:34:36.134Z,101974.33
2019-03-31T11:37:13.274Z,101974.78
2019-03-31T11:39:38.188Z,101975.73
2019-03-31T11:42:08.356Z,101977.41
2019-03-31T11:44:38.441Z,101969.69
2019-03-31T11:47:08.579Z,101976.19
2019-03-31T11:49:38.831Z,101976.02
2019-03-31T11:52:09.001Z,101976.97
2019-03-31T11:54:39.065Z,101976.86
2019-03-31T11:57:09.194Z,101967.06
2019-03-31T11:59:39.286Z,101977.65
2019-03-31T12:02:09.451Z,101977.51
2019-03-31T12:04:39.531Z,101983.23
2019-03-31T12:07:09.601Z,101972.40
2019-03-31T12:09:39.671Z,101972.51
2019-03-31T12:12:09.756Z,101967.23
2019-03-31T12:14:39.860Z,101968.86
2019-03-31T12:17:10.040Z,101963.34
2019-03-31T12:19:40.160Z,101967.11
2019-03-31T12:22:10.327Z,101966.88
2019-03-31T12:24:40.548Z,101964.55
2019-03-31T12:27:10.762Z,101967.75
2019-03-31T12:29:40.841Z,101971.53
2019-03-31T12:32:11.102Z,101964.64
2019-03-31T12:34:41.168Z,101954.66
2019-03-31T12:37:11.300Z,101956.14
2019-03-31T12:39:41.372Z,101963.83
2019-03-31T12:42:11.502Z,101957.97
2019-03-31T12:44:41.567Z,101953.06
2019-03-31T12:47:11.686Z,101962.70
2019-03-31T12:49:41.760Z,101961.29
2019-03-31T12:52:12.875Z,101956.87
2019-03-31T12:54:43.202Z,101953.03
2019-03-31T12:57:13.364Z,101964.70
2019-03-31T12:59:43.500Z,101955.63
2019-03-31T13:02:13.709Z,101956.91
2019-03-31T13:04:43.912Z,101969.44
2019-03-31T13:07:15.017Z,101955.86
2019-03-31T13:09:45.170Z,101963.02
2019-03-31T13:12:15.243Z,101954.52
2019-03-31T13:14:46.291Z,101960.00
2019-03-31T13:17:17.324Z,101961.81
2019-03-31T13:19:48.433Z,101951.35
2019-03-31T13:22:19.482Z,101955.53
2019-03-31T13:24:49.655Z,101952.16
2019-03-31T13:27:19.712Z,101946.95
2019-03-31T13:29:49.818Z,101956.45
2019-03-31T13:32:20.527Z,101957.26
2019-03-31T13:34:50.613Z,101882.91
2019-03-31T13:37:20.749Z,101955.34
2019-03-31T13:39:50.837Z,101956.77
2019-03-31T13:42:20.984Z,101953.73
2019-03-31T13:44:51.051Z,101940.84
2019-03-31T13:47:21.128Z,101941.47
2019-03-31T13:49:51.202Z,101937.41
2019-03-31T13:52:21.323Z,101940.16
2019-03-31T13:54:51.381Z,101935.67
2019-03-31T13:57:22.614Z,101936.98
2019-03-31T13:59:52.834Z,101932.81
2019-03-31T14:02:23.044Z,101941.91
2019-03-31T14:04:53.103Z,101935.97
2019-03-31T14:07:23.196Z,101939.89
2019-03-31T14:09:53.309Z,101940.00
2019-03-31T14:12:23.388Z,101935.35
2019-03-31T14:14:53.471Z,101935.06
2019-03-31T14:17:24.573Z,101932.08
2019-03-31T14:19:54.906Z,101932.08
2019-03-31T14:22:25.136Z,101942.66
2019-03-31T14:24:55.251Z,101936.45
2019-03-31T14:27:25.359Z,101937.64
2019-03-31T14:29:55.436Z,101934.73
2019-03-31T14:32:25.534Z,101940.12
2019-03-31T14:34:55.709Z,101942.11
2019-03-31T14:37:25.823Z,101943.08
2019-03-31T14:39:55.899Z,101948.39
2019-03-31T14:42:26.089Z,101943.22
2019-03-31T14:44:56.223Z,101941.12
2019-03-31T14:47:26.366Z,101946.03
2019-03-31T14:49:57.488Z,101951.22
2019-03-31T14:52:28.065Z,101939.63
2019-03-31T14:54:58.160Z,101935.99
2019-03-31T14:57:28.220Z,101931.53
2019-03-31T14:59:58.297Z,101930.02
2019-03-31T15:02:29.457Z,101932.42
2019-03-31T15:04:59.594Z,101931.74
2019-03-31T15:07:29.671Z,101936.78
2019-03-31T15:09:59.771Z,101935.40
2019-03-31T15:12:29.829Z,101935.78
2019-03-31T15:15:00.033Z,101937.14
2019-03-31T15:17:30.127Z,101938.23
2019-03-31T15:20:00.368Z,101937.63
2019-03-31T15:22:30.445Z,101931.75
2019-03-31T15:25:01.185Z,101926.84
2019-03-31T15:27:31.286Z,101884.45
2019-03-31T15:30:01.381Z,101926.26
2019-03-31T15:32:32.681Z,101927.91
2019-03-31T15:35:02.790Z,101932.55
2019-03-31T15:37:32.883Z,101924.67
2019-03-31T15:40:03.014Z,101929.06
2019-03-31T15:42:33.121Z,101929.42
2019-03-31T15:45:03.276Z,101927.44
2019-03-31T15:47:33.365Z,101916.52
2019-03-31T15:50:03.488Z,101918.25
2019-03-31T15:52:33.664Z,101921.13
2019-03-31T15:55:03.758Z,101926.36
2019-03-31T15:57:33.839Z,101924.08
2019-03-31T16:00:04.932Z,101932.03
2019-03-31T16:02:35.003Z,101928.59
2019-03-31T16:05:06.174Z,101924.63
2019-03-31T16:07:36.385Z,101911.67
2019-03-31T16:10:07.023Z,101922.98
2019-03-31T16:12:36.572Z,101929.59
2019-03-31T16:15:06.442Z,101930.73
2019-03-31T16:17:36.108Z,101924.11
2019-03-31T16:20:06.045Z,101929.59
2019-03-31T16:22:35.547Z,101927.38
2019-03-31T16:25:09.828Z,101928.24
2019-03-31T16:27:39.517Z,101929.11
2019-03-31T16:30:09.138Z,101928.66
2019-03-31T16:32:38.656Z,101925.16
2019-03-31T16:35:09.330Z,101927.50
2019-03-31T16:37:38.879Z,101932.82
2019-03-31T16:40:08.495Z,101925.95
2019-03-31T16:42:38.121Z,101933.69
2019-03-31T16:45:07.917Z,101933.67
2019-03-31T16:47:37.434Z,101936.16
2019-03-31T16:50:07.127Z,101933.44
2019-03-31T16:52:36.666Z,101940.52
2019-03-31T16:55:06.381Z,101937.95
2019-03-31T16:57:37.003Z,101945.12
2019-03-31T17:00:07.602Z,101947.83
2019-03-31T17:02:37.174Z,101947.61
2019-03-31T17:05:20.767Z,101955.48
2019-03-31T17:07:38.552Z,101958.30
2019-03-31T17:10:08.215Z,101952.23
2019-03-31T17:12:37.734Z,101958.56
2019-03-31T17:15:07.467Z,101954.66
2019-03-31T17:17:36.985Z,101950.09
2019-03-31T17:20:07.802Z,101958.19
2019-03-31T17:22:37.488Z,101958.72
2019-03-31T17:25:08.218Z,101963.83
2019-03-31T17:27:38.101Z,101963.90
2019-03-31T17:30:09.562Z,101964.73
2019-03-31T17:32:39.099Z,101963.41
2019-03-31T17:35:08.707Z,101963.59
2019-03-31T17:37:38.258Z,101963.50
2019-03-31T17:40:07.865Z,101972.04
2019-03-31T17:42:37.452Z,101976.31
2019-03-31T17:45:07.469Z,101972.99
2019-03-31T17:47:37.495Z,101976.24
2019-03-31T17:50:07.217Z,101948.30
2019-03-31T17:52:36.700Z,101984.88
2019-03-31T17:55:06.789Z,101976.88
2019-03-31T17:57:37.408Z,101981.17
2019-03-31T18:00:09.264Z,101981.66
2019-03-31T18:02:38.814Z,101989.55
2019-03-31T18:05:08.632Z,101985.02
2019-03-31T18:07:38.149Z,101991.91
2019-03-31T18:10:20.157Z,101991.70
2019-03-31T18:12:38.966Z,101988.36
2019-03-31T18:15:08.952Z,101991.06
2019-03-31T18:17:38.493Z,101995.75
2019-03-31T18:20:08.555Z,102001.41
2019-03-31T18:22:38.510Z,102002.09
2019-03-31T18:25:08.336Z,102001.45
2019-03-31T18:27:38.226Z,102008.95
2019-03-31T18:30:08.096Z,102006.41
2019-03-31T18:32:37.606Z,102011.98
2019-03-31T18:35:07.334Z,102012.22
2019-03-31T18:37:36.875Z,102012.66
2019-03-31T18:40:07.205Z,102015.78
2019-03-31T18:42:36.895Z,102022.28
2019-03-31T18:45:06.945Z,102024.38
2019-03-31T18:47:36.935Z,102018.52
2019-03-31T18:50:06.801Z,102020.73
2019-03-31T18:52:37.491Z,102028.70
2019-03-31T18:55:27.038Z,102030.28
2019-03-31T18:58:02.354Z,102034.04
2019-03-31T19:01:03.410Z,102037.75
2019-03-31T19:03:50.617Z,102034.33
2019-03-31T19:06:32.783Z,102043.97
2019-03-31T19:09:21.410Z,102041.44
2019-03-31T19:12:09.962Z,102045.70
2019-03-31T19:14:51.784Z,102032.53
2019-03-31T19:17:31.310Z,102056.03
2019-03-31T19:20:29.140Z,102058.27
2019-03-31T19:23:08.566Z,102063.10
2019-03-31T19:25:56.586Z,102062.25
2019-03-31T19:28:41.850Z,102075.01
2019-03-31T19:31:36.612Z,102073.83
2019-03-31T19:34:25.817Z,102070.43
2019-03-31T19:37:14.404Z,102080.02
2019-03-31T19:39:53.186Z,102085.75
2019-03-31T19:42:41.862Z,102091.53
2019-03-31T19:45:29.509Z,102093.28
2019-03-31T19:48:07.574Z,102091.32
2019-03-31T19:51:11.589Z,102093.55
2019-03-31T19:54:06.123Z,102093.39
2019-03-31T19:56:46.017Z,102101.48
2019-03-31T19:59:37.725Z,102107.15
2019-03-31T20:02:32.422Z,102106.03
2019-03-31T20:05:19.846Z,102106.27
2019-03-31T20:08:00.739Z,102110.24
2019-03-31T20:10:45.962Z,102109.59
2019-03-31T20:13:52.948Z,102113.73
2019-03-31T20:16:45.136Z,102113.48
2019-03-31T20:19:46.013Z,102112.91
2019-03-31T20:22:34.595Z,102112.67
2019-03-31T20:25:35.548Z,102109.89
2019-03-31T20:28:11.443Z,102110.04
2019-03-31T20:30:52.717Z,102110.01
2019-03-31T20:33:40.276Z,102115.05
2019-03-31T20:36:36.074Z,102120.56
2019-03-31T20:39:23.471Z,102125.92
2019-03-31T20:42:09.383Z,102120.16
2019-03-31T20:44:38.998Z,102126.12
2019-03-31T20:47:08.550Z,102124.71
2019-03-31T20:49:38.100Z,102130.92
2019-03-31T20:52:07.671Z,102127.94
2019-03-31T20:54:37.214Z,102127.20
2019-03-31T20:57:07.885Z,102129.89
2019-03-31T20:59:39.962Z,102128.92
2019-03-31T21:02:09.556Z,102134.48
2019-03-31T21:04:40.177Z,102130.63
2019-03-31T21:07:10.114Z,102137.60
2019-03-31T21:09:45.227Z,102133.65
2019-03-31T21:12:11.222Z,102132.02
2019-03-31T21:14:40.861Z,102145.57
2019-03-31T21:17:11.253Z,102144.75
2019-03-31T21:19:40.815Z,102145.53
2019-03-31T21:22:10.374Z,102149.05
2019-03-31T21:24:40.115Z,102148.59
2019-03-31T21:27:12.632Z,102135.52
2019-03-31T21:29:42.173Z,102158.86
2019-03-31T21:32:11.700Z,102156.25
2019-03-31T21:34:41.248Z,102159.42
2019-03-31T21:37:10.792Z,102161.91
2019-03-31T21:39:40.304Z,102162.79
2019-03-31T21:42:09.829Z,102165.55
2019-03-31T21:44:39.349Z,102163.00
2019-03-31T21:47:08.879Z,102161.19
2019-03-31T21:49:38.387Z,102160.95
2019-03-31T21:52:07.908Z,102168.90
2019-03-31T21:54:37.437Z,102166.02
2019-03-31T21:57:06.964Z,102170.02
2019-03-31T21:59:36.503Z,102174.62
2019-03-31T22:02:06.004Z,102174.28
2019-03-31T22:04:35.543Z,102170.14
2019-03-31T22:07:05.140Z,102173.68
2019-03-31T22:09:34.652Z,102166.69
2019-03-31T22:12:04.324Z,102175.67
2019-03-31T22:14:33.835Z,102171.56
2019-03-31T22:17:03.360Z,102171.47
2019-03-31T22:19:32.882Z,102161.99
2019-03-31T22:22:02.484Z,102160.29
2019-03-31T22:24:31.998Z,102152.81
2019-03-31T22:27:01.636Z,102150.66
2019-03-31T22:29:31.175Z,102147.92
2019-03-31T22:32:00.701Z,102147.17
2019-03-31T22:34:30.230Z,102145.98
2019-03-31T22:36:59.807Z,102152.59
2019-03-31T22:39:29.339Z,102144.69
2019-03-31T22:41:58.858Z,102152.33
2019-03-31T22:44:28.396Z,102152.39
2019-03-31T22:46:57.960Z,102146.39
2019-03-31T22:49:27.497Z,102147.56
2019-03-31T22:51:57.032Z,102150.19
2019-03-31T22:54:29.183Z,102151.04
2019-03-31T22:56:58.762Z,102149.54
2019-03-31T22:59:28.362Z,102151.77
2019-03-31T23:01:58.105Z,102149.45
2019-03-31T23:04:27.830Z,102148.58
2019-03-31T23:06:57.340Z,102144.02
2019-03-31T23:09:26.933Z,102143.16
2019-03-31T23:11:56.444Z,102137.57
2019-03-31T23:14:25.963Z,102142.01
2019-03-31T23:16:55.475Z,102139.67
2019-03-31T23:19:25.010Z,102137.78
2019-03-31T23:21:54.557Z,102142.94
2019-03-31T23:24:24.095Z,102139.78
2019-03-31T23:26:53.615Z,102144.40
2019-03-31T23:29:23.131Z,102142.35
2019-03-31T23:31:52.639Z,102136.62
2019-03-31T23:34:22.154Z,102136.62
2019-03-31T23:36:51.676Z,102135.77
2019-03-31T23:39:21.246Z,102139.98
2019-03-31T23:41:50.723Z,102133.01
2019-03-31T23:44:20.256Z,102134.09
2019-03-31T23:46:49.755Z,102137.38
2019-03-31T23:49:19.297Z,102127.27
2019-03-31T23:51:48.809Z,102129.30
2019-03-31T23:54:18.335Z,102131.92
2019-03-31T23:56:47.861Z,102126.98
2019-03-31T23:59:17.394Z,102128.13
